sensor_id;sensor_type;location;lat;lon;timestamp;P1;durP1;ratioP1;P2;durP2;ratioP2
76548;SDS011;65391;52.068;4.542;2023-04-01T00:02:10;17.7;;;5.2;;
76548;SDS011;65391;52.068;4.542;2023-04-01T00:04:35;17.7;;;5.2;;
76548;SDS011;65391;52.068;4.542;2023-04-01T00:07:00;17.7;;;5.2;;
76548;SDS011;65391;52.068;4.542;2023-04-01T00:09:25;18;;;5.3;;
76548;SDS011;65391;52.068;4.542;2023-04-01T00:11:50;18;;;5.3;;
76548;SDS011;65391;52.068;4.542;2023-04-01T00:14:15;18;;;5.3;;
76548;SDS011;65391;52.068;4.542;2023-04-01T00:16:40;18;;;5.3;;
76548;SDS011;65391;52.068;4.542;2023-04-01T00:19:05;13.3;;;3.8;;
76548;SDS011;65391;52.068;4.542;2023-04-01T00:21:30;13.3;;;3.8;;
76548;SDS011;65391;52.068;4.542;2023-04-01T00:23:55;13.3;;;3.8;;
76548;SDS011;65391;52.068;4.542;2023-04-01T00:26:20;13.3;;;3.8;;
76548;SDS011;65391;52.068;4.542;2023-04-01T00:28:45;13.3;;;3.8;;
76548;SDS011;65391;52.068;4.542;2023-04-01T00:31:10;10.9;;;2.9;;
76548;SDS011;65391;52.068;4.542;2023-04-01T00:33:35;10.9;;;2.9;;
76548;SDS011;65391;52.068;4.542;2023-04-01T00:36:06;10.9;;;2.9;;
76548;SDS011;65391;52.068;4.542;2023-04-01T00:38:25;10.9;;;2.9;;
76548;SDS011;65391;52.068;4.542;2023-04-01T00:40:50;11.3;;;3;;
76548;SDS011;65391;52.068;4.542;2023-04-01T00:43:16;11.3;;;3;;
76548;SDS011;65391;52.068;4.542;2023-04-01T00:45:41;11.3;;;3;;
76548;SDS011;65391;52.068;4.542;2023-04-01T00:48:07;11.3;;;3;;
76548;SDS011;65391;52.068;4.542;2023-04-01T00:50:30;10.4;;;3.1;;
76548;SDS011;65391;52.068;4.542;2023-04-01T00:52:55;10.4;;;3.1;;
76548;SDS011;65391;52.068;4.542;2023-04-01T00:55:20;10.4;;;3.1;;
76548;SDS011;65391;52.068;4.542;2023-04-01T00:57:45;10.4;;;3.1;;
76548;SDS011;65391;52.068;4.542;2023-04-01T01:00:11;11.3;;;3.1;;
76548;SDS011;65391;52.068;4.542;2023-04-01T01:02:35;11.3;;;3.1;;
76548;SDS011;65391;52.068;4.542;2023-04-01T01:05:00;11.3;;;3.1;;
76548;SDS011;65391;52.068;4.542;2023-04-01T01:07:27;11.3;;;3.1;;
76548;SDS011;65391;52.068;4.542;2023-04-01T01:09:52;9.2;;;2.9;;
76548;SDS011;65391;52.068;4.542;2023-04-01T01:12:16;9.2;;;2.9;;
76548;SDS011;65391;52.068;4.542;2023-04-01T01:14:48;9.2;;;2.9;;
76548;SDS011;65391;52.068;4.542;2023-04-01T01:17:07;9.2;;;2.9;;
76548;SDS011;65391;52.068;4.542;2023-04-01T01:19:40;10.3;;;2.3;;
76548;SDS011;65391;52.068;4.542;2023-04-01T01:22:02;10.3;;;2.3;;
76548;SDS011;65391;52.068;4.542;2023-04-01T01:24:30;10.3;;;2.3;;
76548;SDS011;65391;52.068;4.542;2023-04-01T01:26:52;10.3;;;2.3;;
76548;SDS011;65391;52.068;4.542;2023-04-01T01:29:15;10.6;;;2.9;;
76548;SDS011;65391;52.068;4.542;2023-04-01T01:31:37;10.6;;;2.9;;
76548;SDS011;65391;52.068;4.542;2023-04-01T01:34:05;10.6;;;2.9;;
76548;SDS011;65391;52.068;4.542;2023-04-01T01:36:25;10.6;;;2.9;;
76548;SDS011;65391;52.068;4.542;2023-04-01T01:38:50;10.6;;;2.9;;
76548;SDS011;65391;52.068;4.542;2023-04-01T01:41:15;11.1;;;3;;
76548;SDS011;65391;52.068;4.542;2023-04-01T01:43:41;11.1;;;3;;
76548;SDS011;65391;52.068;4.542;2023-04-01T01:46:07;11.1;;;3;;
76548;SDS011;65391;52.068;4.542;2023-04-01T01:48:30;11.1;;;3;;
76548;SDS011;65391;52.068;4.542;2023-04-01T01:50:55;12.4;;;4.2;;
76548;SDS011;65391;52.068;4.542;2023-04-01T01:53:20;12.4;;;4.2;;
76548;SDS011;65391;52.068;4.542;2023-04-01T01:55:45;12.4;;;4.2;;
76548;SDS011;65391;52.068;4.542;2023-04-01T01:58:11;12.4;;;4.2;;
76548;SDS011;65391;52.068;4.542;2023-04-01T02:00:35;11.6;;;3.6;;
76548;SDS011;65391;52.068;4.542;2023-04-01T02:03:00;11.6;;;3.6;;
76548;SDS011;65391;52.068;4.542;2023-04-01T02:05:26;11.6;;;3.6;;
76548;SDS011;65391;52.068;4.542;2023-04-01T02:07:53;11.6;;;3.6;;
76548;SDS011;65391;52.068;4.542;2023-04-01T02:10:15;12.7;;;4.3;;
76548;SDS011;65391;52.068;4.542;2023-04-01T02:12:40;12.7;;;4.3;;
76548;SDS011;65391;52.068;4.542;2023-04-01T02:15:06;12.7;;;4.3;;
76548;SDS011;65391;52.068;4.542;2023-04-01T02:17:30;12.7;;;4.3;;
76548;SDS011;65391;52.068;4.542;2023-04-01T02:19:56;12.3;;;4.1;;
76548;SDS011;65391;52.068;4.542;2023-04-01T02:22:22;12.3;;;4.1;;
76548;SDS011;65391;52.068;4.542;2023-04-01T02:24:45;12.3;;;4.1;;
76548;SDS011;65391;52.068;4.542;2023-04-01T02:27:10;12.3;;;4.1;;
76548;SDS011;65391;52.068;4.542;2023-04-01T02:29:35;10.9;;;3.6;;
76548;SDS011;65391;52.068;4.542;2023-04-01T02:32:00;10.9;;;3.6;;
76548;SDS011;65391;52.068;4.542;2023-04-01T02:34:25;10.9;;;3.6;;
76548;SDS011;65391;52.068;4.542;2023-04-01T02:36:50;10.9;;;3.6;;
76548;SDS011;65391;52.068;4.542;2023-04-01T02:39:15;10.3;;;4;;
76548;SDS011;65391;52.068;4.542;2023-04-01T02:41:40;10.3;;;4;;
76548;SDS011;65391;52.068;4.542;2023-04-01T02:44:05;10.3;;;4;;
76548;SDS011;65391;52.068;4.542;2023-04-01T02:46:30;10.3;;;4;;
76548;SDS011;65391;52.068;4.542;2023-04-01T02:48:55;10.3;;;4;;
76548;SDS011;65391;52.068;4.542;2023-04-01T02:51:20;12.7;;;4.9;;
76548;SDS011;65391;52.068;4.542;2023-04-01T02:53:45;12.7;;;4.9;;
76548;SDS011;65391;52.068;4.542;2023-04-01T02:56:10;12.7;;;4.9;;
76548;SDS011;65391;52.068;4.542;2023-04-01T02:58:35;12.7;;;4.9;;
76548;SDS011;65391;52.068;4.542;2023-04-01T03:01:00;14.9;;;6.7;;
76548;SDS011;65391;52.068;4.542;2023-04-01T03:03:25;14.9;;;6.7;;
76548;SDS011;65391;52.068;4.542;2023-04-01T03:05:50;14.9;;;6.7;;
76548;SDS011;65391;52.068;4.542;2023-04-01T03:08:15;14.9;;;6.7;;
76548;SDS011;65391;52.068;4.542;2023-04-01T03:10:40;13;;;5.6;;
76548;SDS011;65391;52.068;4.542;2023-04-01T03:13:05;13;;;5.6;;
76548;SDS011;65391;52.068;4.542;2023-04-01T03:15:30;13;;;5.6;;
76548;SDS011;65391;52.068;4.542;2023-04-01T03:17:55;13;;;5.6;;
76548;SDS011;65391;52.068;4.542;2023-04-01T03:20:20;10;;;4.4;;
76548;SDS011;65391;52.068;4.542;2023-04-01T03:22:45;10;;;4.4;;
76548;SDS011;65391;52.068;4.542;2023-04-01T03:25:10;10;;;4.4;;
76548;SDS011;65391;52.068;4.542;2023-04-01T03:27:35;10;;;4.4;;
76548;SDS011;65391;52.068;4.542;2023-04-01T03:30:00;13.5;;;5.4;;
76548;SDS011;65391;52.068;4.542;2023-04-01T03:32:25;13.5;;;5.4;;
76548;SDS011;65391;52.068;4.542;2023-04-01T03:34:50;13.5;;;5.4;;
76548;SDS011;65391;52.068;4.542;2023-04-01T03:37:15;13.5;;;5.4;;
76548;SDS011;65391;52.068;4.542;2023-04-01T03:39:40;10.7;;;4.8;;
76548;SDS011;65391;52.068;4.542;2023-04-01T03:42:05;10.7;;;4.8;;
76548;SDS011;65391;52.068;4.542;2023-04-01T03:44:30;10.7;;;4.8;;
76548;SDS011;65391;52.068;4.542;2023-04-01T03:46:55;10.7;;;4.8;;
76548;SDS011;65391;52.068;4.542;2023-04-01T03:49:20;8.8;;;3.5;;
76548;SDS011;65391;52.068;4.542;2023-04-01T03:51:45;8.8;;;3.5;;
76548;SDS011;65391;52.068;4.542;2023-04-01T03:54:10;8.8;;;3.5;;
76548;SDS011;65391;52.068;4.542;2023-04-01T03:56:35;8.8;;;3.5;;
76548;SDS011;65391;52.068;4.542;2023-04-01T03:59:01;8.8;;;3.5;;
76548;SDS011;65391;52.068;4.542;2023-04-01T04:01:25;10.4;;;4.6;;
76548;SDS011;65391;52.068;4.542;2023-04-01T04:03:50;10.4;;;4.6;;
76548;SDS011;65391;52.068;4.542;2023-04-01T04:06:16;10.4;;;4.6;;
76548;SDS011;65391;52.068;4.542;2023-04-01T04:08:40;10.4;;;4.6;;
76548;SDS011;65391;52.068;4.542;2023-04-01T04:11:05;12.7;;;5.5;;
76548;SDS011;65391;52.068;4.542;2023-04-01T04:13:30;12.7;;;5.5;;
76548;SDS011;65391;52.068;4.542;2023-04-01T04:15:55;12.7;;;5.5;;
76548;SDS011;65391;52.068;4.542;2023-04-01T04:18:20;12.7;;;5.5;;
76548;SDS011;65391;52.068;4.542;2023-04-01T04:20:45;14.4;;;6.6;;
76548;SDS011;65391;52.068;4.542;2023-04-01T04:23:10;14.4;;;6.6;;
76548;SDS011;65391;52.068;4.542;2023-04-01T04:25:35;14.4;;;6.6;;
76548;SDS011;65391;52.068;4.542;2023-04-01T04:28:00;14.4;;;6.6;;
76548;SDS011;65391;52.068;4.542;2023-04-01T04:30:25;12.8;;;6.3;;
76548;SDS011;65391;52.068;4.542;2023-04-01T04:32:50;12.8;;;6.3;;
76548;SDS011;65391;52.068;4.542;2023-04-01T04:35:15;12.8;;;6.3;;
76548;SDS011;65391;52.068;4.542;2023-04-01T04:37:40;12.8;;;6.3;;
76548;SDS011;65391;52.068;4.542;2023-04-01T04:40:06;13.3;;;6;;
76548;SDS011;65391;52.068;4.542;2023-04-01T04:42:30;13.3;;;6;;
76548;SDS011;65391;52.068;4.542;2023-04-01T04:44:55;13.3;;;6;;
76548;SDS011;65391;52.068;4.542;2023-04-01T04:47:20;13.3;;;6;;
76548;SDS011;65391;52.068;4.542;2023-04-01T04:49:45;15.5;;;7.5;;
76548;SDS011;65391;52.068;4.542;2023-04-01T04:52:10;15.5;;;7.5;;
76548;SDS011;65391;52.068;4.542;2023-04-01T04:54:35;15.5;;;7.5;;
76548;SDS011;65391;52.068;4.542;2023-04-01T04:57:00;15.5;;;7.5;;
76548;SDS011;65391;52.068;4.542;2023-04-01T04:59:25;15.4;;;7.4;;
76548;SDS011;65391;52.068;4.542;2023-04-01T05:01:50;15.4;;;7.4;;
76548;SDS011;65391;52.068;4.542;2023-04-01T05:04:15;15.4;;;7.4;;
76548;SDS011;65391;52.068;4.542;2023-04-01T05:06:41;15.4;;;7.4;;
76548;SDS011;65391;52.068;4.542;2023-04-01T05:09:05;15.4;;;7.4;;
76548;SDS011;65391;52.068;4.542;2023-04-01T05:11:30;15.1;;;6.8;;
76548;SDS011;65391;52.068;4.542;2023-04-01T05:13:55;15.1;;;6.8;;
76548;SDS011;65391;52.068;4.542;2023-04-01T05:16:20;15.1;;;6.8;;
76548;SDS011;65391;52.068;4.542;2023-04-01T05:18:45;15.1;;;6.8;;
76548;SDS011;65391;52.068;4.542;2023-04-01T05:21:12;14.3;;;6.2;;
76548;SDS011;65391;52.068;4.542;2023-04-01T05:23:35;14.3;;;6.2;;
76548;SDS011;65391;52.068;4.542;2023-04-01T05:26:03;14.3;;;6.2;;
76548;SDS011;65391;52.068;4.542;2023-04-01T05:28:25;14.3;;;6.2;;
76548;SDS011;65391;52.068;4.542;2023-04-01T05:30:50;15.6;;;7.1;;
76548;SDS011;65391;52.068;4.542;2023-04-01T05:33:15;15.6;;;7.1;;
76548;SDS011;65391;52.068;4.542;2023-04-01T05:35:40;15.6;;;7.1;;
76548;SDS011;65391;52.068;4.542;2023-04-01T05:38:05;15.6;;;7.1;;
76548;SDS011;65391;52.068;4.542;2023-04-01T05:40:30;14.4;;;6.3;;
76548;SDS011;65391;52.068;4.542;2023-04-01T05:42:55;14.4;;;6.3;;
76548;SDS011;65391;52.068;4.542;2023-04-01T05:45:20;14.4;;;6.3;;
76548;SDS011;65391;52.068;4.542;2023-04-01T05:47:45;14.4;;;6.3;;
76548;SDS011;65391;52.068;4.542;2023-04-01T05:50:10;13;;;5.8;;
76548;SDS011;65391;52.068;4.542;2023-04-01T05:52:35;13;;;5.8;;
76548;SDS011;65391;52.068;4.542;2023-04-01T05:55:00;13;;;5.8;;
76548;SDS011;65391;52.068;4.542;2023-04-01T05:57:25;13;;;5.8;;
76548;SDS011;65391;52.068;4.542;2023-04-01T05:59:50;12.8;;;5.6;;
76548;SDS011;65391;52.068;4.542;2023-04-01T06:02:16;12.8;;;5.6;;
76548;SDS011;65391;52.068;4.542;2023-04-01T06:04:40;12.8;;;5.6;;
76548;SDS011;65391;52.068;4.542;2023-04-01T06:07:11;12.8;;;5.6;;
76548;SDS011;65391;52.068;4.542;2023-04-01T06:09:30;12.7;;;5.6;;
76548;SDS011;65391;52.068;4.542;2023-04-01T06:12:06;12.7;;;5.6;;
76548;SDS011;65391;52.068;4.542;2023-04-01T06:14:26;12.7;;;5.6;;
76548;SDS011;65391;52.068;4.542;2023-04-01T06:16:53;12.7;;;5.6;;
76548;SDS011;65391;52.068;4.542;2023-04-01T06:19:18;12.7;;;5.6;;
76548;SDS011;65391;52.068;4.542;2023-04-01T06:21:52;11.9;;;5.1;;
76548;SDS011;65391;52.068;4.542;2023-04-01T06:24:07;11.9;;;5.1;;
76548;SDS011;65391;52.068;4.542;2023-04-01T06:26:29;11.9;;;5.1;;
76548;SDS011;65391;52.068;4.542;2023-04-01T06:29:00;11.9;;;5.1;;
76548;SDS011;65391;52.068;4.542;2023-04-01T06:31:24;12.5;;;5.2;;
76548;SDS011;65391;52.068;4.542;2023-04-01T06:33:48;12.5;;;5.2;;
76548;SDS011;65391;52.068;4.542;2023-04-01T06:36:14;12.5;;;5.2;;
76548;SDS011;65391;52.068;4.542;2023-04-01T06:38:38;12.5;;;5.2;;
76548;SDS011;65391;52.068;4.542;2023-04-01T06:41:02;13.2;;;5.3;;
76548;SDS011;65391;52.068;4.542;2023-04-01T06:43:21;13.2;;;5.3;;
76548;SDS011;65391;52.068;4.542;2023-04-01T06:45:47;13.2;;;5.3;;
76548;SDS011;65391;52.068;4.542;2023-04-01T06:48:18;13.2;;;5.3;;
76548;SDS011;65391;52.068;4.542;2023-04-01T06:50:37;12;;;5;;
76548;SDS011;65391;52.068;4.542;2023-04-01T06:53:03;12;;;5;;
76548;SDS011;65391;52.068;4.542;2023-04-01T06:55:27;12;;;5;;
76548;SDS011;65391;52.068;4.542;2023-04-01T06:57:51;12;;;5;;
76548;SDS011;65391;52.068;4.542;2023-04-01T07:00:18;13;;;5.3;;
76548;SDS011;65391;52.068;4.542;2023-04-01T07:02:41;13;;;5.3;;
76548;SDS011;65391;52.068;4.542;2023-04-01T07:05:05;13;;;5.3;;
76548;SDS011;65391;52.068;4.542;2023-04-01T07:07:33;13;;;5.3;;
76548;SDS011;65391;52.068;4.542;2023-04-01T07:09:56;11;;;4.2;;
76548;SDS011;65391;52.068;4.542;2023-04-01T07:12:23;11;;;4.2;;
76548;SDS011;65391;52.068;4.542;2023-04-01T07:14:45;11;;;4.2;;
76548;SDS011;65391;52.068;4.542;2023-04-01T07:17:12;11;;;4.2;;
76548;SDS011;65391;52.068;4.542;2023-04-01T07:19:37;9.8;;;4.2;;
76548;SDS011;65391;52.068;4.542;2023-04-01T07:22:02;9.8;;;4.2;;
76548;SDS011;65391;52.068;4.542;2023-04-01T07:24:26;9.8;;;4.2;;
76548;SDS011;65391;52.068;4.542;2023-04-01T07:26:52;9.8;;;4.2;;
76548;SDS011;65391;52.068;4.542;2023-04-01T07:29:15;9.8;;;4.2;;
76548;SDS011;65391;52.068;4.542;2023-04-01T07:31:48;9.4;;;4.3;;
76548;SDS011;65391;52.068;4.542;2023-04-01T07:34:08;9.4;;;4.3;;
76548;SDS011;65391;52.068;4.542;2023-04-01T07:36:33;9.4;;;4.3;;
76548;SDS011;65391;52.068;4.542;2023-04-01T07:38:59;9.4;;;4.3;;
76548;SDS011;65391;52.068;4.542;2023-04-01T07:41:23;11.3;;;5;;
76548;SDS011;65391;52.068;4.542;2023-04-01T07:43:56;11.3;;;5;;
76548;SDS011;65391;52.068;4.542;2023-04-01T07:46:16;11.3;;;5;;
76548;SDS011;65391;52.068;4.542;2023-04-01T07:48:38;11.3;;;5;;
76548;SDS011;65391;52.068;4.542;2023-04-01T07:51:02;12;;;5.1;;
76548;SDS011;65391;52.068;4.542;2023-04-01T07:53:27;12;;;5.1;;
76548;SDS011;65391;52.068;4.542;2023-04-01T07:55:52;12;;;5.1;;
76548;SDS011;65391;52.068;4.542;2023-04-01T07:58:18;12;;;5.1;;
76548;SDS011;65391;52.068;4.542;2023-04-01T08:00:42;9.9;;;3.9;;
76548;SDS011;65391;52.068;4.542;2023-04-01T08:03:14;9.9;;;3.9;;
76548;SDS011;65391;52.068;4.542;2023-04-01T08:05:33;9.9;;;3.9;;
76548;SDS011;65391;52.068;4.542;2023-04-01T08:08:00;9.9;;;3.9;;
76548;SDS011;65391;52.068;4.542;2023-04-01T08:10:22;14;;;5.6;;
76548;SDS011;65391;52.068;4.542;2023-04-01T08:12:49;14;;;5.6;;
76548;SDS011;65391;52.068;4.542;2023-04-01T08:15:15;14;;;5.6;;
76548;SDS011;65391;52.068;4.542;2023-04-01T08:17:38;14;;;5.6;;
76548;SDS011;65391;52.068;4.542;2023-04-01T08:20:08;11.1;;;4.4;;
76548;SDS011;65391;52.068;4.542;2023-04-01T08:22:27;11.1;;;4.4;;
76548;SDS011;65391;52.068;4.542;2023-04-01T08:24:50;11.1;;;4.4;;
76548;SDS011;65391;52.068;4.542;2023-04-01T08:27:17;11.1;;;4.4;;
76548;SDS011;65391;52.068;4.542;2023-04-01T08:29:42;10.7;;;4.4;;
76548;SDS011;65391;52.068;4.542;2023-04-01T08:32:06;10.7;;;4.4;;
76548;SDS011;65391;52.068;4.542;2023-04-01T08:34:33;10.7;;;4.4;;
76548;SDS011;65391;52.068;4.542;2023-04-01T08:36:58;10.7;;;4.4;;
76548;SDS011;65391;52.068;4.542;2023-04-01T08:39:22;10.7;;;4.4;;
76548;SDS011;65391;52.068;4.542;2023-04-01T08:41:56;13.6;;;5.9;;
76548;SDS011;65391;52.068;4.542;2023-04-01T08:44:26;13.6;;;5.9;;
76548;SDS011;65391;52.068;4.542;2023-04-01T08:47:00;13.6;;;5.9;;
76548;SDS011;65391;52.068;4.542;2023-04-01T08:49:05;13.6;;;5.9;;
76548;SDS011;65391;52.068;4.542;2023-04-01T08:51:39;13.3;;;5.9;;
76548;SDS011;65391;52.068;4.542;2023-04-01T08:53:59;13.3;;;5.9;;
76548;SDS011;65391;52.068;4.542;2023-04-01T08:56:17;13.3;;;5.9;;
76548;SDS011;65391;52.068;4.542;2023-04-01T08:59:23;13.3;;;5.9;;
76548;SDS011;65391;52.068;4.542;2023-04-01T09:01:13;12.5;;;5;;
76548;SDS011;65391;52.068;4.542;2023-04-01T09:03:41;12.5;;;5;;
76548;SDS011;65391;52.068;4.542;2023-04-01T09:06:07;12.5;;;5;;
76548;SDS011;65391;52.068;4.542;2023-04-01T09:08:28;12.5;;;5;;
76548;SDS011;65391;52.068;4.542;2023-04-01T09:10:53;15.7;;;6.7;;
76548;SDS011;65391;52.068;4.542;2023-04-01T09:13:24;15.7;;;6.7;;
76548;SDS011;65391;52.068;4.542;2023-04-01T09:15:42;15.7;;;6.7;;
76548;SDS011;65391;52.068;4.542;2023-04-01T09:18:32;15.7;;;6.7;;
76548;SDS011;65391;52.068;4.542;2023-04-01T09:20:39;14.2;;;6;;
76548;SDS011;65391;52.068;4.542;2023-04-01T09:22:57;14.2;;;6;;
76548;SDS011;65391;52.068;4.542;2023-04-01T09:25:22;14.2;;;6;;
76548;SDS011;65391;52.068;4.542;2023-04-01T09:27:44;14.2;;;6;;
76548;SDS011;65391;52.068;4.542;2023-04-01T09:30:17;10.6;;;4.8;;
76548;SDS011;65391;52.068;4.542;2023-04-01T09:32:40;10.6;;;4.8;;
76548;SDS011;65391;52.068;4.542;2023-04-01T09:34:57;10.6;;;4.8;;
76548;SDS011;65391;52.068;4.542;2023-04-01T09:37:21;10.6;;;4.8;;
76548;SDS011;65391;52.068;4.542;2023-04-01T09:40:09;6.9;;;2.7;;
76548;SDS011;65391;52.068;4.542;2023-04-01T09:42:20;6.9;;;2.7;;
76548;SDS011;65391;52.068;4.542;2023-04-01T09:44:36;6.9;;;2.7;;
76548;SDS011;65391;52.068;4.542;2023-04-01T09:47:07;6.9;;;2.7;;
76548;SDS011;65391;52.068;4.542;2023-04-01T09:49:40;6.9;;;2.7;;
76548;SDS011;65391;52.068;4.542;2023-04-01T09:51:57;11.1;;;4;;
76548;SDS011;65391;52.068;4.542;2023-04-01T09:54:24;11.1;;;4;;
76548;SDS011;65391;52.068;4.542;2023-04-01T09:56:52;11.1;;;4;;
76548;SDS011;65391;52.068;4.542;2023-04-01T10:01:39;12.2;;;5.1;;
76548;SDS011;65391;52.068;4.542;2023-04-01T10:04:12;12.2;;;5.1;;
76548;SDS011;65391;52.068;4.542;2023-04-01T10:07:04;12.2;;;5.1;;
76548;SDS011;65391;52.068;4.542;2023-04-01T10:11:22;14.7;;;6.2;;
76548;SDS011;65391;52.068;4.542;2023-04-01T10:13:54;14.7;;;6.2;;
76548;SDS011;65391;52.068;4.542;2023-04-01T10:16:07;14.7;;;6.2;;
76548;SDS011;65391;52.068;4.542;2023-04-01T10:23:21;15.4;;;6.4;;
76548;SDS011;65391;52.068;4.542;2023-04-01T10:25:53;15.4;;;6.4;;
76548;SDS011;65391;52.068;4.542;2023-04-01T10:28:19;15.4;;;6.4;;
76548;SDS011;65391;52.068;4.542;2023-04-01T10:30:41;14.5;;;5.4;;
76548;SDS011;65391;52.068;4.542;2023-04-01T10:35:28;14.5;;;5.4;;
76548;SDS011;65391;52.068;4.542;2023-04-01T10:38:00;14.5;;;5.4;;
76548;SDS011;65391;52.068;4.542;2023-04-01T10:41:25;14.7;;;6.2;;
76548;SDS011;65391;52.068;4.542;2023-04-01T10:44:06;14.7;;;6.2;;
76548;SDS011;65391;52.068;4.542;2023-04-01T10:47:56;14.7;;;6.2;;
76548;SDS011;65391;52.068;4.542;2023-04-01T10:50:04;15.3;;;6.6;;
76548;SDS011;65391;52.068;4.542;2023-04-01T10:52:34;15.3;;;6.6;;
76548;SDS011;65391;52.068;4.542;2023-04-01T10:54:45;15.3;;;6.6;;
76548;SDS011;65391;52.068;4.542;2023-04-01T10:57:10;15.3;;;6.6;;
76548;SDS011;65391;52.068;4.542;2023-04-01T11:03:13;11.9;;;5;;
76548;SDS011;65391;52.068;4.542;2023-04-01T11:04:38;11.9;;;5;;
76548;SDS011;65391;52.068;4.542;2023-04-01T11:07:13;11.9;;;5;;
76548;SDS011;65391;52.068;4.542;2023-04-01T11:14:18;11.8;;;5.4;;
76548;SDS011;65391;52.068;4.542;2023-04-01T11:16:42;11.8;;;5.4;;
76548;SDS011;65391;52.068;4.542;2023-04-01T11:19:07;11.8;;;5.4;;
76548;SDS011;65391;52.068;4.542;2023-04-01T11:23:46;12.8;;;5.6;;
76548;SDS011;65391;52.068;4.542;2023-04-01T11:26:08;12.8;;;5.6;;
76548;SDS011;65391;52.068;4.542;2023-04-01T11:28:48;12.8;;;5.6;;
76548;SDS011;65391;52.068;4.542;2023-04-01T11:31:02;11.8;;;5.5;;
76548;SDS011;65391;52.068;4.542;2023-04-01T11:33:22;11.8;;;5.5;;
76548;SDS011;65391;52.068;4.542;2023-04-01T11:35:52;11.8;;;5.5;;
76548;SDS011;65391;52.068;4.542;2023-04-01T11:38:19;11.8;;;5.5;;
76548;SDS011;65391;52.068;4.542;2023-04-01T11:40:37;11.5;;;5.1;;
76548;SDS011;65391;52.068;4.542;2023-04-01T11:43:01;11.5;;;5.1;;
76548;SDS011;65391;52.068;4.542;2023-04-01T11:45:32;11.5;;;5.1;;
76548;SDS011;65391;52.068;4.542;2023-04-01T11:47:57;11.5;;;5.1;;
76548;SDS011;65391;52.068;4.542;2023-04-01T11:50:20;11.9;;;4.9;;
76548;SDS011;65391;52.068;4.542;2023-04-01T11:52:52;11.9;;;4.9;;
76548;SDS011;65391;52.068;4.542;2023-04-01T11:55:15;11.9;;;4.9;;
76548;SDS011;65391;52.068;4.542;2023-04-01T11:57:42;11.9;;;4.9;;
76548;SDS011;65391;52.068;4.542;2023-04-01T12:00:02;12.3;;;5.1;;
76548;SDS011;65391;52.068;4.542;2023-04-01T12:02:25;12.3;;;5.1;;
76548;SDS011;65391;52.068;4.542;2023-04-01T12:04:52;12.3;;;5.1;;
76548;SDS011;65391;52.068;4.542;2023-04-01T12:07:17;12.3;;;5.1;;
76548;SDS011;65391;52.068;4.542;2023-04-01T12:09:40;12.3;;;5.1;;
76548;SDS011;65391;52.068;4.542;2023-04-01T12:12:10;9.8;;;4.1;;
76548;SDS011;65391;52.068;4.542;2023-04-01T12:14:29;9.8;;;4.1;;
76548;SDS011;65391;52.068;4.542;2023-04-01T12:16:55;9.8;;;4.1;;
76548;SDS011;65391;52.068;4.542;2023-04-01T12:19:19;9.8;;;4.1;;
76548;SDS011;65391;52.068;4.542;2023-04-01T12:21:43;11.1;;;4.3;;
76548;SDS011;65391;52.068;4.542;2023-04-01T12:24:20;11.1;;;4.3;;
76548;SDS011;65391;52.068;4.542;2023-04-01T12:26:39;11.1;;;4.3;;
76548;SDS011;65391;52.068;4.542;2023-04-01T12:29:04;11.1;;;4.3;;
76548;SDS011;65391;52.068;4.542;2023-04-01T12:31:27;12.6;;;5.1;;
76548;SDS011;65391;52.068;4.542;2023-04-01T12:33:51;12.6;;;5.1;;
76548;SDS011;65391;52.068;4.542;2023-04-01T12:36:17;12.6;;;5.1;;
76548;SDS011;65391;52.068;4.542;2023-04-01T12:38:40;12.6;;;5.1;;
76548;SDS011;65391;52.068;4.542;2023-04-01T12:41:08;14.2;;;5.6;;
76548;SDS011;65391;52.068;4.542;2023-04-01T12:43:34;14.2;;;5.6;;
76548;SDS011;65391;52.068;4.542;2023-04-01T12:45:54;14.2;;;5.6;;
76548;SDS011;65391;52.068;4.542;2023-04-01T12:48:27;14.2;;;5.6;;
76548;SDS011;65391;52.068;4.542;2023-04-01T12:50:59;15.5;;;5.8;;
76548;SDS011;65391;52.068;4.542;2023-04-01T12:53:13;15.5;;;5.8;;
76548;SDS011;65391;52.068;4.542;2023-04-01T12:55:38;15.5;;;5.8;;
76548;SDS011;65391;52.068;4.542;2023-04-01T12:58:07;15.5;;;5.8;;
76548;SDS011;65391;52.068;4.542;2023-04-01T13:00:27;16.7;;;7.4;;
76548;SDS011;65391;52.068;4.542;2023-04-01T13:02:53;16.7;;;7.4;;
76548;SDS011;65391;52.068;4.542;2023-04-01T13:05:18;16.7;;;7.4;;
76548;SDS011;65391;52.068;4.542;2023-04-01T13:07:48;16.7;;;7.4;;
76548;SDS011;65391;52.068;4.542;2023-04-01T13:10:03;15.3;;;5.8;;
76548;SDS011;65391;52.068;4.542;2023-04-01T13:12:35;15.3;;;5.8;;
76548;SDS011;65391;52.068;4.542;2023-04-01T13:15:01;15.3;;;5.8;;
76548;SDS011;65391;52.068;4.542;2023-04-01T13:17:17;15.3;;;5.8;;
76548;SDS011;65391;52.068;4.542;2023-04-01T13:19:44;15.3;;;5.8;;
76548;SDS011;65391;52.068;4.542;2023-04-01T13:22:08;13.7;;;4.7;;
76548;SDS011;65391;52.068;4.542;2023-04-01T13:24:37;13.7;;;4.7;;
76548;SDS011;65391;52.068;4.542;2023-04-01T13:26:58;13.7;;;4.7;;
76548;SDS011;65391;52.068;4.542;2023-04-01T13:29:22;13.7;;;4.7;;
76548;SDS011;65391;52.068;4.542;2023-04-01T13:31:55;10.5;;;3.4;;
76548;SDS011;65391;52.068;4.542;2023-04-01T13:34:17;10.5;;;3.4;;
76548;SDS011;65391;52.068;4.542;2023-04-01T13:36:38;10.5;;;3.4;;
76548;SDS011;65391;52.068;4.542;2023-04-01T13:39:07;10.5;;;3.4;;
76548;SDS011;65391;52.068;4.542;2023-04-01T13:41:34;12.2;;;3.6;;
76548;SDS011;65391;52.068;4.542;2023-04-01T13:43:52;12.2;;;3.6;;
76548;SDS011;65391;52.068;4.542;2023-04-01T13:46:26;12.2;;;3.6;;
76548;SDS011;65391;52.068;4.542;2023-04-01T13:48:50;12.2;;;3.6;;
76548;SDS011;65391;52.068;4.542;2023-04-01T13:51:13;14.7;;;4.7;;
76548;SDS011;65391;52.068;4.542;2023-04-01T13:53:41;14.7;;;4.7;;
76548;SDS011;65391;52.068;4.542;2023-04-01T13:56:01;14.7;;;4.7;;
76548;SDS011;65391;52.068;4.542;2023-04-01T13:58:33;14.7;;;4.7;;
76548;SDS011;65391;52.068;4.542;2023-04-01T14:00:51;13.5;;;4.2;;
76548;SDS011;65391;52.068;4.542;2023-04-01T14:03:24;13.5;;;4.2;;
76548;SDS011;65391;52.068;4.542;2023-04-01T14:05:42;13.5;;;4.2;;
76548;SDS011;65391;52.068;4.542;2023-04-01T14:08:07;13.5;;;4.2;;
76548;SDS011;65391;52.068;4.542;2023-04-01T14:10:30;14;;;4;;
76548;SDS011;65391;52.068;4.542;2023-04-01T14:12:56;14;;;4;;
76548;SDS011;65391;52.068;4.542;2023-04-01T14:15:25;14;;;4;;
76548;SDS011;65391;52.068;4.542;2023-04-01T14:17:47;14;;;4;;
76548;SDS011;65391;52.068;4.542;2023-04-01T14:20:33;10.9;;;3.4;;
76548;SDS011;65391;52.068;4.542;2023-04-01T14:22:34;10.9;;;3.4;;
76548;SDS011;65391;52.068;4.542;2023-04-01T14:25:06;10.9;;;3.4;;
76548;SDS011;65391;52.068;4.542;2023-04-01T14:27:30;10.9;;;3.4;;
76548;SDS011;65391;52.068;4.542;2023-04-01T14:29:53;10.9;;;3.4;;
76548;SDS011;65391;52.068;4.542;2023-04-01T14:32:11;13.4;;;4.3;;
76548;SDS011;65391;52.068;4.542;2023-04-01T14:34:43;13.4;;;4.3;;
76548;SDS011;65391;52.068;4.542;2023-04-01T14:37:10;13.4;;;4.3;;
76548;SDS011;65391;52.068;4.542;2023-04-01T14:39:33;13.4;;;4.3;;
76548;SDS011;65391;52.068;4.542;2023-04-01T14:41:53;9.1;;;2.8;;
76548;SDS011;65391;52.068;4.542;2023-04-01T14:44:22;9.1;;;2.8;;
76548;SDS011;65391;52.068;4.542;2023-04-01T14:46:55;9.1;;;2.8;;
76548;SDS011;65391;52.068;4.542;2023-04-01T14:49:15;9.1;;;2.8;;
76548;SDS011;65391;52.068;4.542;2023-04-01T14:51:32;9.2;;;3.1;;
76548;SDS011;65391;52.068;4.542;2023-04-01T14:54:05;9.2;;;3.1;;
76548;SDS011;65391;52.068;4.542;2023-04-01T14:56:35;9.2;;;3.1;;
76548;SDS011;65391;52.068;4.542;2023-04-01T14:58:46;9.2;;;3.1;;
76548;SDS011;65391;52.068;4.542;2023-04-01T15:01:17;8.9;;;2.7;;
76548;SDS011;65391;52.068;4.542;2023-04-01T15:03:38;8.9;;;2.7;;
76548;SDS011;65391;52.068;4.542;2023-04-01T15:06:26;8.9;;;2.7;;
76548;SDS011;65391;52.068;4.542;2023-04-01T15:08:26;8.9;;;2.7;;
76548;SDS011;65391;52.068;4.542;2023-04-01T15:10:58;8.9;;;3.1;;
76548;SDS011;65391;52.068;4.542;2023-04-01T15:13:20;8.9;;;3.1;;
76548;SDS011;65391;52.068;4.542;2023-04-01T15:15:50;8.9;;;3.1;;
76548;SDS011;65391;52.068;4.542;2023-04-01T15:18:08;8.9;;;3.1;;
76548;SDS011;65391;52.068;4.542;2023-04-01T15:20:45;11.2;;;3.4;;